»·PEaware :: UAL455 KSFO-KLAS

UAL455 :: KSFO-KLAS

FLIGHT INFORMATION

Flight Status: Arrived
Operator:
United Airlines
More flights by this operator :: More flights under this callsign
Pilot: Brandon G. (13)
Aircraft: BOEING 757-200
(B752)
More flights by this aircraft type
Origin: KSFO San Francisco Intl
United States
Destination: KLAS McCarran Intl
United States
More flights between these airports :: More routes between these airports
Route: + / OAK140040 KENNO Q162 ESSAA BTY SUNST4
File this flight plan on PilotEdge
Remarks:
Altitude:
(Current/Filed)
33,000ft
Speed:
(Current/Filed)
425kts
Departed: 20-Nov-17 09:28 PM
Arrived: 20-Nov-17 10:27 PM
Distance/Time
Traveled:
358nm/0:59
Distance/Time
To Go:
Arrived

Flight Plot

Page will automatically refresh every two minutes.

Flight plan parsing failed; only flown route is shown


Map Options




Map Legend


Flown Route
Filed Route
Departure Airport
Arrival Airport
Navaid (VOR, NDB)
Fix

Horizontal Profiles

Position Reports

Time Latitude Longitude Heading Altitude Ground
Speed
20-Nov-17 21:10 37.620142 -122.389422 27 35ft 0kts
20-Nov-17 21:11 37.620142 -122.389422 27 34ft 0kts
20-Nov-17 21:12 37.620142 -122.389422 27 34ft 0kts
20-Nov-17 21:13 37.620142 -122.389422 27 34ft 0kts
20-Nov-17 21:14 37.620142 -122.389422 27 34ft 0kts
20-Nov-17 21:15 37.620142 -122.389422 27 34ft 0kts
20-Nov-17 21:16 37.620142 -122.389422 27 34ft 0kts
20-Nov-17 21:17 37.620142 -122.389422 27 34ft 0kts
20-Nov-17 21:18 37.620142 -122.389422 27 34ft 0kts
20-Nov-17 21:19 37.620142 -122.389422 27 34ft 0kts
20-Nov-17 21:20 37.620142 -122.389422 27 34ft 0kts
20-Nov-17 21:21 37.620033 -122.389491 27 34ft 2kts
20-Nov-17 21:22 37.619458 -122.389611 350 34ft 1kts
20-Nov-17 21:23 37.619442 -122.389611 330 34ft 0kts
20-Nov-17 21:24 37.619442 -122.389611 330 34ft 0kts
20-Nov-17 21:25 37.619544 -122.389904 284 34ft 3kts
20-Nov-17 21:26 37.621828 -122.391336 28 34ft 19kts
20-Nov-17 21:27 37.621230 -122.385720 118 34ft 18kts
20-Nov-17 21:28 37.618553 -122.379913 145 34ft 19kts
20-Nov-17 21:29 37.613394 -122.381808 207 35ft 20kts
20-Nov-17 21:30 37.609328 -122.384529 206 34ft 6kts
20-Nov-17 21:31 37.608545 -122.384083 118 34ft 0kts
20-Nov-17 21:32 37.608535 -122.384061 118 34ft 1kts
20-Nov-17 21:33 37.612675 -122.379787 27 34ft 93kts
20-Nov-17 21:34 37.651945 -122.364855 4 1277ft 161kts
20-Nov-17 21:35 37.699603 -122.379537 295 3150ft 237kts
20-Nov-17 21:36 37.663052 -122.434793 177 7345ft 269kts
20-Nov-17 21:37 37.589638 -122.442516 198 10705ft 285kts
20-Nov-17 21:38 37.502885 -122.460626 177 12719ft 369kts
20-Nov-17 21:39 37.420315 -122.377007 120 15838ft 432kts
20-Nov-17 21:40 37.387858 -122.226442 106 18584ft 462kts
20-Nov-17 21:41 37.357141 -122.069893 106 21245ft 478kts
20-Nov-17 21:42 37.324277 -121.908265 107 23614ft 493kts
20-Nov-17 21:43 37.290645 -121.740043 106 25585ft 511kts
20-Nov-17 21:44 37.255220 -121.565801 106 27363ft 527kts
20-Nov-17 21:45 37.217973 -121.387696 107 29045ft 540kts
20-Nov-17 21:46 37.182163 -121.213575 106 30986ft 540kts
20-Nov-17 21:47 37.167815 -121.029029 79 32870ft 541kts
20-Nov-17 21:48 37.190567 -120.844960 84 33183ft 539kts
20-Nov-17 21:49 37.200595 -120.658417 86 33178ft 539kts
20-Nov-17 21:50 37.207954 -120.472160 86 33181ft 539kts
20-Nov-17 21:51 37.214852 -120.292970 86 33168ft 539kts
20-Nov-17 21:52 37.222739 -120.107397 86 33190ft 538kts
20-Nov-17 21:53 37.229918 -119.921689 86 33193ft 538kts
20-Nov-17 21:54 37.236760 -119.735637 86 33196ft 537kts
20-Nov-17 21:55 37.242831 -119.551351 85 33198ft 535kts
20-Nov-17 21:56 37.248984 -119.366038 86 33201ft 536kts
20-Nov-17 21:57 37.253810 -119.183837 86 33353ft 537kts
20-Nov-17 21:58 37.259293 -118.996863 86 33375ft 537kts
20-Nov-17 21:59 37.264489 -118.811490 86 33378ft 537kts
20-Nov-17 22:00 37.268450 -118.624865 85 33241ft 538kts
20-Nov-17 22:01 37.273873 -118.439191 85 33237ft 538kts
20-Nov-17 22:02 37.279076 -118.257166 86 33225ft 538kts
20-Nov-17 22:03 37.281646 -118.070660 86 33228ft 538kts
20-Nov-17 22:04 37.285110 -117.882860 86 33231ft 538kts
20-Nov-17 22:05 37.288529 -117.696757 85 33234ft 538kts
20-Nov-17 22:06 37.292523 -117.509916 84 33273ft 538kts
20-Nov-17 22:07 37.283250 -117.326730 106 33274ft 543kts
20-Nov-17 22:08 37.208916 -117.165685 129 33295ft 537kts
20-Nov-17 22:09 37.119352 -117.018108 130 33276ft 537kts
20-Nov-17 22:10 37.011615 -116.896071 155 33231ft 522kts
20-Nov-17 22:11 36.890876 -116.810644 156 33017ft 510kts
20-Nov-17 22:12 36.773624 -116.710041 135 30074ft 529kts
20-Nov-17 22:13 36.677210 -116.573968 134 27680ft 516kts
20-Nov-17 22:14 36.586269 -116.445376 133 26003ft 490kts
20-Nov-17 22:15 36.500156 -116.323114 134 23367ft 467kts
20-Nov-17 22:16 36.416771 -116.205827 133 20524ft 445kts
20-Nov-17 22:17 36.337147 -116.093407 132 18332ft 436kts
20-Nov-17 22:18 36.258581 -115.983243 132 16569ft 414kts
20-Nov-17 22:19 36.193803 -115.881049 111 15859ft 348kts
20-Nov-17 22:20 36.158709 -115.772545 110 15132ft 338kts
20-Nov-17 22:21 36.124269 -115.665727 109 14392ft 332kts
20-Nov-17 22:22 36.087053 -115.562496 110 13270ft 329kts
20-Nov-17 22:23 36.060218 -115.458321 101 12148ft 314kts
20-Nov-17 22:24 36.038896 -115.356673 101 10600ft 295kts
20-Nov-17 22:25 36.018884 -115.263193 101 8846ft 286kts
20-Nov-17 22:26 36.000661 -115.168318 89 6947ft 281kts
20-Nov-17 22:27 36.042229 -115.111917 21 6330ft 220kts
20-Nov-17 22:28 36.093202 -115.081326 20 5525ft 171kts
20-Nov-17 22:29 36.128386 -115.097391 298 4565ft 141kts
20-Nov-17 22:30 36.126244 -115.140503 223 3468ft 139kts
20-Nov-17 22:31 36.097874 -115.157437 206 2186ft 132kts
20-Nov-17 22:32 36.082694 -115.168054 264 2167ft 8kts
20-Nov-17 22:33 36.081574 -115.171548 304 2177ft 15kts
20-Nov-17 22:34 36.081708 -115.171629 14 2177ft 0kts
20-Nov-17 22:35 36.081708 -115.171629 14 2177ft 0kts
20-Nov-17 22:36 36.081708 -115.171629 14 2177ft 0kts
20-Nov-17 22:37 36.081708 -115.171629 14 2177ft 0kts
20-Nov-17 22:38 36.081708 -115.171629 14 2177ft 0kts

Navigation Log

Ident Type
Flight plan parsing failed, navigation log unavailable